Time;durP1;ratioP1;P1;durP2;ratioP2;P2;SDS_P1;SDS_P2;PMS_P1;PMS_P2;Temp;Humidity;BMP_temperature;BMP_pressure;BME280_temperature;BME280_humidity;BME280_pressure;Samples;Min_cycle;Max_cycle;Signal;HPM_P1;HPM_P2
2021/07/14 00:00:58;;;;;;;0.53;0.53;;;16.40;99.90;;;;;;5034066;28;20281;-69
2021/07/14 00:03:26;;;;;;;0.77;0.63;;;16.40;99.90;;;;;;5035873;28;20195;-68
2021/07/14 00:05:52;;;;;;;0.07;0.07;;;16.40;99.90;;;;;;5032178;28;20250;-68
2021/07/14 00:08:19;;;;;;;3.03;1.30;;;16.40;99.90;;;;;;5036361;28;20285;-68
2021/07/14 00:10:46;;;;;;;4.73;2.20;;;16.40;99.90;;;;;;5037655;28;20219;-69
2021/07/14 00:13:25;;;;;;;0.43;0.43;;;16.30;99.90;;;;;;5034531;28;20709;-68
2021/07/14 00:24:07;;;;;;;1.80;1.40;;;16.30;99.90;;;;;;5032458;28;20191;-69
2021/07/14 00:26:34;;;;;;;7.50;2.20;;;16.30;99.90;;;;;;5035636;28;22408;-69
2021/07/14 00:29:04;;;;;;;0.30;0.30;;;16.30;99.90;;;;;;5034159;28;20254;-68
2021/07/14 00:31:33;;;;;;;1.17;0.87;;;16.40;99.90;;;;;;5036033;28;20311;-69
2021/07/14 00:34:00;;;;;;;1.00;0.60;;;16.30;99.90;;;;;;5033855;28;20290;-69
2021/07/14 00:36:27;;;;;;;0.93;0.77;;;16.40;99.90;;;;;;5033802;28;20836;-69
2021/07/14 00:38:54;;;;;;;0.00;0.00;;;16.30;99.90;;;;;;5035484;28;20224;-69
2021/07/14 00:41:21;;;;;;;0.00;0.00;;;16.30;99.90;;;;;;5035758;28;21137;-70
2021/07/14 00:43:48;;;;;;;1.90;1.17;;;16.30;99.90;;;;;;5034706;28;20200;-69
2021/07/14 00:46:23;;;;;;;0.00;0.00;;;16.30;99.90;;;;;;5031445;28;20246;-69
2021/07/14 00:48:53;;;;;;;3.87;2.43;;;16.40;99.90;;;;;;5036399;28;20278;-70
2021/07/14 00:51:21;;;;;;;2.87;2.37;;;16.40;99.90;;;;;;5036852;28;20200;-69
2021/07/14 00:53:48;;;;;;;3.80;1.83;;;16.40;99.90;;;;;;5031076;28;20265;-69
2021/07/14 00:56:15;;;;;;;0.00;0.00;;;16.40;99.90;;;;;;5034551;28;20204;-69
2021/07/14 00:58:42;;;;;;;0.93;0.40;;;16.40;99.90;;;;;;5037043;28;20219;-69
2021/07/14 01:01:09;;;;;;;0.00;0.00;;;16.40;99.90;;;;;;5037188;28;20200;-69
2021/07/14 01:03:41;;;;;;;2.17;1.90;;;16.40;99.90;;;;;;5032852;28;20208;-69
2021/07/14 01:06:18;;;;;;;0.00;0.00;;;16.40;99.90;;;;;;5034563;28;20273;-69
2021/07/14 01:08:52;;;;;;;1.27;1.17;;;16.40;99.90;;;;;;5033953;28;20329;-69
2021/07/14 01:11:22;;;;;;;0.00;0.00;;;16.40;99.90;;;;;;5033881;28;20299;-69
2021/07/14 01:13:56;;;;;;;1.70;1.60;;;16.40;99.90;;;;;;5034261;28;20196;-69
2021/07/14 01:16:26;;;;;;;0.47;0.33;;;16.30;99.90;;;;;;5033895;28;20258;-69
2021/07/14 01:18:58;;;;;;;1.07;0.50;;;16.40;99.90;;;;;;5036047;28;20223;-69
2021/07/14 01:21:28;;;;;;;0.00;0.00;;;16.40;99.90;;;;;;5036120;28;20240;-69
2021/07/14 01:24:06;;;;;;;0.50;0.30;;;16.40;99.90;;;;;;5036406;28;20714;-69
2021/07/14 01:26:46;;;;;;;0.00;0.00;;;16.40;99.90;;;;;;5037883;28;20847;-69
2021/07/14 01:29:16;;;;;;;1.33;1.30;;;16.40;99.90;;;;;;5042092;28;20195;-69
2021/07/14 01:31:47;;;;;;;0.00;0.00;;;16.40;99.90;;;;;;5038438;28;20692;-69
2021/07/14 01:34:15;;;;;;;3.50;0.53;;;16.40;99.90;;;;;;5037850;28;20257;-69
2021/07/14 01:36:46;;;;;;;0.20;0.20;;;16.40;99.90;;;;;;5035036;28;20612;-69
2021/07/14 01:39:14;;;;;;;0.00;0.00;;;16.40;99.90;;;;;;5038921;28;20223;-69
2021/07/14 01:41:46;;;;;;;1.47;1.37;;;16.40;99.90;;;;;;5037074;28;20250;-69
2021/07/14 01:44:15;;;;;;;3.77;1.13;;;16.40;99.90;;;;;;5036602;28;20273;-69
2021/07/14 01:46:44;;;;;;;0.10;0.10;;;16.40;99.90;;;;;;5040911;28;20627;-69
2021/07/14 01:49:13;;;;;;;2.30;2.10;;;16.50;99.90;;;;;;5039228;28;20196;-67
2021/07/14 01:51:46;;;;;;;0.10;0.10;;;16.50;99.90;;;;;;5037204;28;20277;-67
2021/07/14 01:54:14;;;;;;;0.63;0.20;;;16.50;99.90;;;;;;5033308;28;20209;-70
2021/07/14 01:56:42;;;;;;;0.10;0.10;;;16.50;99.90;;;;;;5035191;28;20192;-67
2021/07/14 01:59:11;;;;;;;0.00;0.00;;;16.50;99.90;;;;;;5039516;28;20608;-70
2021/07/14 02:01:43;;;;;;;0.60;0.60;;;16.50;99.90;;;;;;5036888;28;21735;-69
2021/07/14 02:04:33;;;;;;;3.43;1.57;;;16.60;99.90;;;;;;5035513;28;20539;-70
2021/07/14 02:07:05;;;;;;;2.43;2.10;;;16.60;99.90;;;;;;5035609;28;20342;-66
2021/07/14 02:09:34;;;;;;;0.00;0.00;;;16.50;99.90;;;;;;5040170;28;20200;-69
2021/07/14 02:12:03;;;;;;;1.33;1.23;;;16.50;99.90;;;;;;5037897;28;20210;-68
2021/07/14 02:14:33;;;;;;;0.00;0.00;;;16.60;99.90;;;;;;5039073;28;20679;-68
2021/07/14 02:17:05;;;;;;;0.43;0.40;;;16.50;99.90;;;;;;5043257;28;20234;-69
2021/07/14 02:19:34;;;;;;;0.90;0.43;;;16.60;99.90;;;;;;5044024;28;20288;-69
2021/07/14 02:22:02;;;;;;;0.83;0.47;;;16.60;99.90;;;;;;5048509;28;20237;-69
2021/07/14 02:24:30;;;;;;;3.73;1.90;;;16.60;99.90;;;;;;5040328;28;20677;-70
2021/07/14 02:26:57;;;;;;;0.33;0.13;;;16.60;99.90;;;;;;5044171;28;20195;-68
2021/07/14 02:29:25;;;;;;;2.30;0.97;;;16.50;99.90;;;;;;5050384;28;20296;-67
2021/07/14 02:31:51;;;;;;;0.10;0.10;;;16.50;99.90;;;;;;5037967;28;20253;-69
2021/07/14 02:34:20;;;;;;;7.83;2.73;;;16.50;99.90;;;;;;5039272;28;20203;-67
2021/07/14 02:36:49;;;;;;;0.00;0.00;;;16.50;99.90;;;;;;5043709;28;20258;-69
2021/07/14 02:39:17;;;;;;;0.20;0.20;;;16.50;99.90;;;;;;5038575;28;20319;-67
2021/07/14 02:41:51;;;;;;;0.93;0.67;;;16.50;99.90;;;;;;5039146;28;20254;-67
2021/07/14 02:44:21;;;;;;;0.97;0.67;;;16.50;99.90;;;;;;5038925;28;20191;-66
2021/07/14 02:46:49;;;;;;;1.73;1.23;;;16.50;99.90;;;;;;5042028;28;20645;-67
2021/07/14 02:49:22;;;;;;;0.20;0.20;;;16.50;99.90;;;;;;5038698;28;20204;-68
2021/07/14 02:51:51;;;;;;;1.20;1.10;;;16.50;99.90;;;;;;5041232;28;20199;-70
2021/07/14 02:54:22;;;;;;;3.37;1.90;;;16.50;99.90;;;;;;5042103;28;20637;-67
2021/07/14 02:56:52;;;;;;;0.47;0.47;;;16.50;99.90;;;;;;5041463;28;20199;-67
2021/07/14 02:59:25;;;;;;;0.07;0.07;;;16.60;99.90;;;;;;5043592;28;20224;-67
2021/07/14 03:01:55;;;;;;;1.80;1.40;;;16.60;99.90;;;;;;5041981;28;20648;-67
2021/07/14 03:04:28;;;;;;;0.20;0.20;;;16.60;99.90;;;;;;5038774;28;20202;-67
2021/07/14 03:06:56;;;;;;;0.10;0.10;;;16.60;99.90;;;;;;5044105;28;20264;-67
2021/07/14 03:09:32;;;;;;;3.17;1.80;;;16.60;99.90;;;;;;5040111;28;20261;-67
2021/07/14 03:12:00;;;;;;;0.00;0.00;;;16.60;99.90;;;;;;5039448;28;21162;-67
2021/07/14 03:14:28;;;;;;;0.00;0.00;;;16.60;99.90;;;;;;5040946;28;20560;-67
2021/07/14 03:16:56;;;;;;;1.13;0.77;;;16.60;99.90;;;;;;5041732;28;20322;-69
2021/07/14 03:19:26;;;;;;;5.20;1.13;;;16.60;99.90;;;;;;5041519;28;20231;-69
2021/07/14 03:21:55;;;;;;;1.10;0.97;;;16.60;99.90;;;;;;5044209;28;20191;-67
2021/07/14 03:24:23;;;;;;;0.07;0.07;;;16.60;99.90;;;;;;5044501;28;20610;-67
2021/07/14 03:26:50;;;;;;;0.00;0.00;;;16.60;99.90;;;;;;5041165;28;20862;-67
2021/07/14 03:29:18;;;;;;;2.63;2.23;;;16.60;99.90;;;;;;5052127;28;20710;-68
2021/07/14 03:31:46;;;;;;;0.00;0.00;;;16.60;99.90;;;;;;5041613;28;20200;-69
2021/07/14 03:34:13;;;;;;;5.07;1.13;;;16.60;99.90;;;;;;5042947;28;20528;-68
2021/07/14 03:36:45;;;;;;;2.47;2.00;;;16.60;99.90;;;;;;5037037;28;20917;-69
2021/07/14 03:39:12;;;;;;;0.10;0.10;;;16.60;99.90;;;;;;5039234;28;20239;-67
2021/07/14 03:41:40;;;;;;;0.23;0.23;;;16.60;99.90;;;;;;5041614;28;20200;-67
2021/07/14 03:44:09;;;;;;;1.30;0.93;;;16.60;99.90;;;;;;5039558;28;20282;-68
2021/07/14 03:46:37;;;;;;;5.57;1.93;;;16.60;99.90;;;;;;5038211;28;20245;-67
2021/07/14 03:49:04;;;;;;;0.10;0.10;;;16.60;99.90;;;;;;5036389;28;20265;-66
2021/07/14 03:51:31;;;;;;;3.60;3.30;;;16.60;99.90;;;;;;5039753;28;20555;-67
2021/07/14 03:54:01;;;;;;;3.93;1.97;;;16.60;99.90;;;;;;5042440;28;20207;-67
2021/07/14 03:56:29;;;;;;;0.27;0.27;;;16.60;99.90;;;;;;5041883;28;20202;-67
2021/07/14 03:58:56;;;;;;;3.20;1.70;;;16.60;99.90;;;;;;5043008;28;20216;-67
2021/07/14 04:01:24;;;;;;;8.67;1.70;;;16.60;99.90;;;;;;5037410;28;20647;-67
2021/07/14 04:03:53;;;;;;;0.50;0.50;;;16.60;99.90;;;;;;5041295;28;20196;-69
2021/07/14 04:06:22;;;;;;;0.10;0.00;;;16.60;99.90;;;;;;5038460;28;20231;-67
2021/07/14 04:09:21;;;;;;;0.27;0.27;;;16.60;99.90;;;;;;5041008;28;20210;-68
2021/07/14 04:11:52;;;;;;;0.40;0.40;;;16.60;99.90;;;;;;5037107;28;20195;-67
2021/07/14 04:14:20;;;;;;;0.00;0.00;;;16.60;99.90;;;;;;5041923;28;20197;-67
2021/07/14 04:16:47;;;;;;;0.00;0.00;;;16.60;99.90;;;;;;5040574;28;20245;-67
2021/07/14 04:19:14;;;;;;;3.97;1.40;;;16.60;99.90;;;;;;5041474;28;20701;-67
2021/07/14 04:21:41;;;;;;;0.40;0.37;;;16.60;99.90;;;;;;5042119;28;20703;-67
2021/07/14 04:24:08;;;;;;;4.83;1.70;;;16.60;99.90;;;;;;5044790;28;20741;-67
2021/07/14 04:26:36;;;;;;;3.60;0.83;;;16.60;99.90;;;;;;5042101;28;20200;-67
2021/07/14 04:29:06;;;;;;;1.13;1.03;;;16.60;99.90;;;;;;5042526;28;20200;-67
2021/07/14 04:31:33;;;;;;;0.77;0.30;;;16.60;99.90;;;;;;5036942;28;20241;-67
2021/07/14 04:34:00;;;;;;;3.30;1.00;;;16.60;99.90;;;;;;5040599;28;20200;-67
2021/07/14 04:36:27;;;;;;;0.00;0.00;;;16.60;99.90;;;;;;5037962;28;20204;-67
2021/07/14 04:38:56;;;;;;;2.30;1.27;;;16.60;99.90;;;;;;5044634;28;20281;-67
2021/07/14 04:41:22;;;;;;;1.13;0.77;;;16.60;99.90;;;;;;5042545;28;20200;-68
2021/07/14 04:43:49;;;;;;;0.00;0.00;;;16.50;99.90;;;;;;5039326;28;20676;-67
2021/07/14 04:46:18;;;;;;;1.10;1.00;;;16.60;99.90;;;;;;5039768;28;20245;-68
2021/07/14 04:48:45;;;;;;;0.00;0.00;;;16.60;99.90;;;;;;5040494;28;20250;-68
2021/07/14 04:51:12;;;;;;;0.00;0.00;;;16.60;99.90;;;;;;5042513;28;20200;-68
2021/07/14 04:53:39;;;;;;;0.17;0.17;;;16.50;99.90;;;;;;5037931;28;20200;-68
2021/07/14 04:56:06;;;;;;;1.30;1.20;;;16.50;99.90;;;;;;5040667;28;20245;-68
2021/07/14 04:58:33;;;;;;;0.90;0.77;;;16.50;99.90;;;;;;5042658;28;20790;-68
2021/07/14 05:01:00;;;;;;;0.93;0.93;;;16.50;99.90;;;;;;5047828;28;20223;-67
2021/07/14 05:03:28;;;;;;;0.83;0.83;;;16.50;99.90;;;;;;5044022;28;20566;-68
2021/07/14 05:05:55;;;;;;;0.17;0.17;;;16.50;99.90;;;;;;5048163;28;20195;-68
2021/07/14 05:08:22;;;;;;;0.30;0.30;;;16.50;99.90;;;;;;5044427;28;20204;-68
2021/07/14 05:10:49;;;;;;;0.17;0.17;;;16.50;99.90;;;;;;5043450;28;20204;-67
2021/07/14 05:13:17;;;;;;;3.50;2.10;;;16.50;99.90;;;;;;5040656;28;20223;-68
2021/07/14 05:15:45;;;;;;;0.00;0.00;;;16.50;99.90;;;;;;5044020;28;20199;-67
2021/07/14 05:18:12;;;;;;;0.80;0.80;;;16.50;99.90;;;;;;5044807;28;20235;-67
2021/07/14 05:20:41;;;;;;;2.30;2.03;;;16.50;99.90;;;;;;5044647;28;20270;-67
2021/07/14 05:23:09;;;;;;;1.17;1.17;;;16.50;99.90;;;;;;5038458;28;20652;-67
2021/07/14 05:25:36;;;;;;;1.30;0.67;;;16.50;99.90;;;;;;5044973;28;20200;-68
2021/07/14 05:28:05;;;;;;;0.00;0.00;;;16.50;99.90;;;;;;5043410;28;20203;-69
2021/07/14 05:30:32;;;;;;;0.73;0.73;;;16.50;99.90;;;;;;5040889;28;20215;-68
2021/07/14 05:33:00;;;;;;;0.00;0.00;;;16.50;99.90;;;;;;5044171;28;20278;-68
2021/07/14 05:35:27;;;;;;;0.80;0.80;;;16.50;99.90;;;;;;5046385;28;20667;-68
2021/07/14 05:37:55;;;;;;;0.47;0.47;;;16.50;99.90;;;;;;5041446;28;20204;-68
2021/07/14 05:40:23;;;;;;;2.43;1.07;;;16.50;99.90;;;;;;5042264;28;20293;-67
2021/07/14 05:42:50;;;;;;;0.07;0.03;;;16.50;99.90;;;;;;5039066;28;20724;-68
2021/07/14 05:45:17;;;;;;;0.00;0.00;;;16.50;99.90;;;;;;5038493;28;20215;-68
2021/07/14 05:47:45;;;;;;;0.00;0.00;;;16.50;99.90;;;;;;5047334;28;20570;-70
2021/07/14 05:50:13;;;;;;;0.00;0.00;;;16.50;99.90;;;;;;5053886;28;20200;-71
2021/07/14 05:52:40;;;;;;;0.27;0.27;;;16.50;99.90;;;;;;5054217;28;20199;-69
2021/07/14 05:55:10;;;;;;;0.63;0.63;;;16.50;99.90;;;;;;5052307;28;20204;-70
2021/07/14 05:57:37;;;;;;;0.43;0.43;;;16.50;99.90;;;;;;5054279;28;20199;-67
2021/07/14 06:00:06;;;;;;;0.80;0.77;;;16.40;99.90;;;;;;5054145;28;20571;-70
2021/07/14 06:02:33;;;;;;;0.37;0.37;;;16.40;99.90;;;;;;5051242;28;20257;-67
2021/07/14 06:05:00;;;;;;;0.00;0.00;;;16.40;99.90;;;;;;5055134;28;20191;-67
2021/07/14 06:07:27;;;;;;;0.43;0.43;;;16.40;99.90;;;;;;5051028;28;21295;-67
2021/07/14 06:09:54;;;;;;;0.20;0.20;;;16.40;99.90;;;;;;5044130;28;20196;-67
2021/07/14 06:12:23;;;;;;;0.50;0.50;;;16.40;99.90;;;;;;5042550;28;20641;-68
2021/07/14 06:14:50;;;;;;;0.00;0.00;;;16.40;99.90;;;;;;5041014;28;20270;-70
2021/07/14 06:17:17;;;;;;;0.23;0.23;;;16.30;99.90;;;;;;5044539;28;20657;-68
2021/07/14 06:19:45;;;;;;;0.30;0.30;;;16.30;99.90;;;;;;5041591;28;20243;-70
2021/07/14 06:22:12;;;;;;;0.10;0.10;;;16.30;99.90;;;;;;5044706;28;20199;-67
2021/07/14 06:24:39;;;;;;;0.77;0.77;;;16.40;99.90;;;;;;5048410;28;20196;-68
2021/07/14 06:27:06;;;;;;;0.00;0.00;;;16.40;99.90;;;;;;5054860;28;20215;-69
2021/07/14 06:29:35;;;;;;;0.00;0.00;;;16.40;99.90;;;;;;5054547;28;20265;-67
2021/07/14 06:32:02;;;;;;;0.00;0.00;;;16.40;99.90;;;;;;5054061;28;20265;-67
2021/07/14 06:34:28;;;;;;;0.30;0.20;;;16.40;99.90;;;;;;5053516;28;20927;-69
2021/07/14 06:36:55;;;;;;;0.77;0.77;;;16.40;99.90;;;;;;5054459;28;20200;-70
2021/07/14 06:39:23;;;;;;;0.97;0.80;;;16.50;99.90;;;;;;5053529;28;20204;-67
2021/07/14 06:41:50;;;;;;;0.40;0.40;;;16.50;99.90;;;;;;5053314;28;20222;-68
2021/07/14 06:44:18;;;;;;;0.00;0.00;;;16.50;99.90;;;;;;5054377;28;20283;-67
2021/07/14 06:46:46;;;;;;;0.00;0.00;;;16.50;99.90;;;;;;5053317;28;20200;-68
2021/07/14 06:49:13;;;;;;;0.20;0.20;;;16.60;99.90;;;;;;5053944;28;20202;-68
2021/07/14 06:51:40;;;;;;;0.00;0.00;;;16.60;99.90;;;;;;5050304;28;20222;-67
2021/07/14 06:54:07;;;;;;;0.00;0.00;;;16.60;99.90;;;;;;5047233;28;20204;-68
2021/07/14 06:56:34;;;;;;;0.10;0.10;;;16.60;99.90;;;;;;5045337;28;20211;-67
2021/07/14 06:59:01;;;;;;;0.00;0.00;;;16.60;99.90;;;;;;5039028;28;20196;-67
2021/07/14 07:01:28;;;;;;;0.00;0.00;;;16.60;99.90;;;;;;5034795;28;20324;-69
2021/07/14 07:03:57;;;;;;;0.33;0.33;;;16.60;99.90;;;;;;5041578;28;20237;-68
2021/07/14 07:06:24;;;;;;;0.40;0.40;;;16.60;99.90;;;;;;5049588;28;20253;-68
2021/07/14 07:08:52;;;;;;;2.90;1.37;;;16.60;99.90;;;;;;5048323;28;20759;-69
2021/07/14 07:11:19;;;;;;;0.00;0.00;;;16.50;99.90;;;;;;5049497;28;20203;-68
2021/07/14 07:13:46;;;;;;;3.73;1.00;;;16.50;99.90;;;;;;5048714;28;20203;-68
2021/07/14 07:16:13;;;;;;;3.47;0.73;;;16.50;99.90;;;;;;5049204;28;20203;-68
2021/07/14 07:18:40;;;;;;;0.53;0.23;;;16.50;99.90;;;;;;5049079;28;20198;-69
2021/07/14 07:21:09;;;;;;;0.17;0.17;;;16.50;99.90;;;;;;5049755;28;20239;-69
2021/07/14 07:23:37;;;;;;;0.37;0.37;;;16.50;99.90;;;;;;5050221;28;20242;-68
2021/07/14 07:26:05;;;;;;;1.07;0.97;;;16.50;99.90;;;;;;5048066;28;20207;-69
2021/07/14 07:28:35;;;;;;;1.20;1.03;;;16.50;99.90;;;;;;5048979;28;20593;-68
2021/07/14 07:31:06;;;;;;;2.53;1.90;;;16.50;99.90;;;;;;5049670;28;20199;-68
2021/07/14 07:33:34;;;;;;;0.00;0.00;;;16.50;99.90;;;;;;5049293;28;20253;-68
2021/07/14 07:36:01;;;;;;;0.00;0.00;;;16.50;99.90;;;;;;5046910;28;20196;-69
2021/07/14 07:38:29;;;;;;;0.73;0.63;;;16.50;99.90;;;;;;5040246;28;20715;-68
2021/07/14 07:40:57;;;;;;;1.57;1.47;;;16.50;99.90;;;;;;5037794;28;20231;-68
2021/07/14 07:43:26;;;;;;;0.10;0.10;;;16.50;99.90;;;;;;5037129;28;20208;-69
2021/07/14 07:45:54;;;;;;;2.10;1.73;;;16.50;99.90;;;;;;5037338;28;20262;-69
2021/07/14 07:48:21;;;;;;;2.43;2.23;;;16.40;99.90;;;;;;5035118;28;20733;-69
2021/07/14 07:50:49;;;;;;;1.40;1.30;;;16.40;99.90;;;;;;5040114;28;20246;-70
2021/07/14 07:53:17;;;;;;;0.10;0.10;;;16.40;99.90;;;;;;5048994;28;20677;-70
2021/07/14 07:55:45;;;;;;;0.00;0.00;;;16.40;99.90;;;;;;5047544;28;20207;-70
2021/07/14 07:58:12;;;;;;;0.10;0.10;;;16.40;99.90;;;;;;5041241;28;20219;-71
2021/07/14 08:00:40;;;;;;;0.40;0.40;;;16.50;99.90;;;;;;5040044;28;20273;-71
2021/07/14 08:03:07;;;;;;;0.83;0.83;;;16.50;99.90;;;;;;5036700;28;20208;-71
2021/07/14 08:05:34;;;;;;;0.00;0.00;;;16.50;99.90;;;;;;5040880;28;20215;-70
2021/07/14 08:08:01;;;;;;;1.10;0.97;;;16.50;99.90;;;;;;5035868;28;20748;-70
2021/07/14 08:10:28;;;;;;;0.00;0.00;;;16.50;99.90;;;;;;5041304;28;20253;-71
2021/07/14 08:12:57;;;;;;;1.17;0.63;;;16.60;99.90;;;;;;5037635;28;20204;-72
2021/07/14 08:15:24;;;;;;;0.53;0.40;;;16.60;99.90;;;;;;5038171;28;20257;-71
2021/07/14 08:17:51;;;;;;;0.43;0.10;;;16.60;99.90;;;;;;5038126;28;20203;-71
2021/07/14 08:20:18;;;;;;;3.13;2.10;;;16.60;99.90;;;;;;5041106;28;20281;-71
2021/07/14 08:22:45;;;;;;;0.00;0.00;;;16.60;99.90;;;;;;5040185;28;20674;-71
2021/07/14 08:25:13;;;;;;;0.20;0.20;;;16.60;99.90;;;;;;5040271;28;20253;-71
2021/07/14 08:27:41;;;;;;;0.00;0.00;;;16.60;99.90;;;;;;5037751;28;20196;-71
2021/07/14 08:30:12;;;;;;;0.00;0.00;;;16.70;99.90;;;;;;5036885;28;20254;-71
2021/07/14 08:32:40;;;;;;;0.30;0.30;;;16.70;99.90;;;;;;5035971;28;20196;-71
2021/07/14 08:35:09;;;;;;;2.00;1.60;;;16.70;99.90;;;;;;5036458;28;20207;-71
2021/07/14 08:37:36;;;;;;;0.30;0.30;;;16.70;99.90;;;;;;5034744;28;20241;-71
2021/07/14 08:40:07;;;;;;;3.07;0.93;;;16.70;99.90;;;;;;5049396;28;20203;-70
2021/07/14 08:42:36;;;;;;;0.10;0.10;;;16.80;99.90;;;;;;5050816;28;20206;-70
2021/07/14 08:45:07;;;;;;;0.00;0.00;;;16.80;99.90;;;;;;5050295;28;20278;-70
2021/07/14 08:47:35;;;;;;;1.57;1.47;;;16.80;99.90;;;;;;5047767;28;20195;-70
2021/07/14 08:50:03;;;;;;;0.00;0.00;;;16.80;99.90;;;;;;5047819;28;20200;-70
2021/07/14 08:52:30;;;;;;;0.60;0.10;;;16.90;99.90;;;;;;5032277;28;20208;-70
2021/07/14 08:54:57;;;;;;;2.83;1.53;;;16.90;99.90;;;;;;5032039;28;20204;-70
2021/07/14 08:57:24;;;;;;;0.00;0.00;;;16.90;99.90;;;;;;5051640;28;20203;-71
2021/07/14 08:59:51;;;;;;;0.10;0.10;;;16.90;99.90;;;;;;5050953;28;20204;-69
2021/07/14 09:02:18;;;;;;;1.70;1.17;;;16.90;99.90;;;;;;5051816;28;20223;-70
2021/07/14 09:04:46;;;;;;;0.27;0.27;;;16.90;99.90;;;;;;5047177;28;20231;-69
2021/07/14 09:07:15;;;;;;;0.10;0.10;;;16.90;99.90;;;;;;5047770;28;20814;-70
2021/07/14 09:09:43;;;;;;;0.63;0.63;;;17.00;99.90;;;;;;5047326;28;20318;-70
2021/07/14 09:12:13;;;;;;;3.10;1.27;;;17.10;99.90;;;;;;5045287;28;20208;-70
2021/07/14 09:14:41;;;;;;;0.93;0.90;;;17.10;99.90;;;;;;5047838;28;20226;-72
2021/07/14 09:17:23;;;;;;;0.30;0.30;;;17.10;99.90;;;;;;5042905;28;20192;-72
2021/07/14 09:19:53;;;;;;;0.73;0.73;;;17.10;99.90;;;;;;5047055;28;20246;-71
2021/07/14 09:22:22;;;;;;;2.80;1.17;;;17.20;99.90;;;;;;5046326;28;20695;-72
2021/07/14 09:24:50;;;;;;;0.63;0.63;;;17.20;99.90;;;;;;5048315;28;20204;-71
2021/07/14 09:27:19;;;;;;;0.53;0.50;;;17.20;99.90;;;;;;5045134;28;20200;-70
2021/07/14 09:30:20;;;;;;;2.10;1.27;;;17.20;99.90;;;;;;5045411;28;20203;-71
2021/07/14 09:32:50;;;;;;;0.20;0.10;;;17.10;99.90;;;;;;4954084;28;20210;-71
2021/07/14 09:35:26;;;;;;;0.00;0.00;;;17.20;99.90;;;;;;4956305;28;20203;-71
2021/07/14 09:37:53;;;;;;;0.33;0.33;;;17.20;99.90;;;;;;4962327;28;20201;-71
2021/07/14 09:40:21;;;;;;;4.47;0.30;;;17.20;99.90;;;;;;4964627;28;20257;-71
2021/07/14 09:42:57;;;;;;;0.00;0.00;;;17.20;99.90;;;;;;4968295;28;20656;-67
2021/07/14 09:45:38;;;;;;;0.30;0.30;;;17.20;99.90;;;;;;4968668;28;20233;-71
2021/07/14 09:48:07;;;;;;;0.10;0.10;;;17.30;99.90;;;;;;4968346;28;20206;-70
2021/07/14 09:50:39;;;;;;;2.90;1.70;;;17.40;99.90;;;;;;4969294;28;20801;-70
2021/07/14 09:53:07;;;;;;;1.40;0.67;;;17.40;99.90;;;;;;4970347;28;20183;-70
2021/07/14 09:55:35;;;;;;;0.13;0.13;;;17.40;99.90;;;;;;4970364;28;20194;-72
2021/07/14 09:58:14;;;;;;;0.20;0.20;;;17.50;99.90;;;;;;4968334;28;21502;-70
2021/07/14 10:00:49;;;;;;;0.00;0.00;;;17.50;99.90;;;;;;4950875;29;20249;-70
2021/07/14 10:03:21;;;;;;;0.00;0.00;;;17.50;99.90;;;;;;4986995;28;20248;-71
2021/07/14 10:05:50;;;;;;;0.20;0.20;;;17.60;99.90;;;;;;5051355;28;20954;-70
2021/07/14 10:08:20;;;;;;;0.00;0.00;;;17.60;99.90;;;;;;5050280;28;20724;-69
2021/07/14 10:10:49;;;;;;;1.13;0.20;;;17.70;99.90;;;;;;5051410;28;20230;-69
2021/07/14 10:13:21;;;;;;;3.00;0.40;;;17.70;99.90;;;;;;5047806;28;20750;-71
2021/07/14 10:16:01;;;;;;;0.77;0.77;;;17.60;99.90;;;;;;5050125;28;20562;-71
2021/07/14 10:18:28;;;;;;;0.20;0.20;;;17.60;99.90;;;;;;5051132;28;20793;-70
2021/07/14 10:20:57;;;;;;;1.10;0.77;;;17.60;99.90;;;;;;5049977;28;20227;-69
2021/07/14 10:23:24;;;;;;;0.77;0.20;;;17.60;99.90;;;;;;5051283;28;20242;-70
2021/07/14 10:25:52;;;;;;;5.63;1.33;;;17.60;99.90;;;;;;5051045;28;20200;-71
2021/07/14 10:28:20;;;;;;;0.00;0.00;;;17.60;99.90;;;;;;5050182;28;20200;-69
2021/07/14 10:30:49;;;;;;;0.00;0.00;;;17.60;99.90;;;;;;5051197;28;20202;-70
2021/07/14 10:33:19;;;;;;;0.00;0.00;;;17.60;99.90;;;;;;5050249;28;20227;-71
2021/07/14 10:35:48;;;;;;;0.00;0.00;;;17.60;99.90;;;;;;5049722;28;20199;-71
2021/07/14 10:38:18;;;;;;;0.57;0.57;;;17.70;99.90;;;;;;5050678;28;20671;-71
2021/07/14 10:40:49;;;;;;;0.07;0.07;;;17.70;99.90;;;;;;5048716;28;20242;-70
2021/07/14 10:43:18;;;;;;;2.73;1.33;;;17.80;99.90;;;;;;5050604;28;20684;-70
2021/07/14 10:45:48;;;;;;;0.00;0.00;;;17.80;99.90;;;;;;5050854;28;20202;-70
2021/07/14 10:48:16;;;;;;;0.00;0.00;;;17.90;99.90;;;;;;5050497;28;20272;-71
2021/07/14 10:50:44;;;;;;;1.30;1.20;;;17.90;99.90;;;;;;5048263;28;20235;-70
2021/07/14 10:53:13;;;;;;;0.00;0.00;;;17.90;99.90;;;;;;5046942;28;20196;-71
2021/07/14 10:55:42;;;;;;;0.10;0.10;;;17.90;99.90;;;;;;5049629;28;20274;-70
2021/07/14 10:58:13;;;;;;;2.17;1.40;;;18.00;99.90;;;;;;5049480;28;20604;-70
2021/07/14 11:00:41;;;;;;;0.13;0.13;;;18.00;99.90;;;;;;5049294;28;20273;-70
2021/07/14 11:03:29;;;;;;;0.00;0.00;;;17.90;99.90;;;;;;5050353;28;20684;-70
2021/07/14 11:05:56;;;;;;;0.00;0.00;;;17.80;99.90;;;;;;5048631;28;20195;-69
2021/07/14 11:08:38;;;;;;;0.63;0.63;;;17.80;99.90;;;;;;5050321;28;20199;-70
2021/07/14 11:11:07;;;;;;;0.00;0.00;;;17.80;99.90;;;;;;5050513;28;20195;-70
2021/07/14 11:13:36;;;;;;;0.10;0.10;;;17.80;99.90;;;;;;5049981;28;20192;-70
2021/07/14 11:16:29;;;;;;;0.10;0.10;;;17.90;99.90;;;;;;5049820;28;20195;-71
2021/07/14 11:19:02;;;;;;;2.47;1.23;;;17.90;99.90;;;;;;5048934;28;20661;-70
2021/07/14 11:21:50;;;;;;;0.10;0.10;;;18.00;99.90;;;;;;5046606;28;20426;-71
2021/07/14 11:24:55;;;;;;;0.00;0.00;;;18.00;99.90;;;;;;5048470;28;20219;-70
2021/07/14 11:27:59;;;;;;;0.30;0.17;;;18.00;99.90;;;;;;5048016;28;20223;-70
2021/07/14 11:30:37;;;;;;;0.73;0.73;;;18.10;99.90;;;;;;5046087;28;20249;-71
2021/07/14 11:33:05;;;;;;;2.77;1.07;;;18.00;99.90;;;;;;5045308;28;20204;-70
2021/07/14 11:35:54;;;;;;;0.53;0.33;;;18.00;99.90;;;;;;5047816;28;20208;-71
2021/07/14 11:38:24;;;;;;;0.20;0.20;;;17.90;99.90;;;;;;5028066;28;20230;-70
2021/07/14 11:40:54;;;;;;;0.73;0.73;;;17.80;99.90;;;;;;5037815;28;20201;-70
2021/07/14 11:43:28;;;;;;;0.00;0.00;;;17.80;99.90;;;;;;5034852;28;20743;-71
2021/07/14 11:45:58;;;;;;;0.63;0.63;;;17.80;99.90;;;;;;5045783;28;20199;-70
2021/07/14 11:48:31;;;;;;;0.20;0.20;;;17.80;99.90;;;;;;5048336;28;20203;-70
2021/07/14 11:50:59;;;;;;;0.00;0.00;;;17.90;99.90;;;;;;5044675;28;20196;-71
2021/07/14 11:53:44;;;;;;;0.00;0.00;;;18.00;99.90;;;;;;5043737;28;20245;-72
2021/07/14 11:56:14;;;;;;;0.87;0.77;;;18.20;99.90;;;;;;5044052;28;20204;-71
2021/07/14 11:59:04;;;;;;;0.00;0.00;;;18.40;99.90;;;;;;5038165;28;20586;-70
2021/07/14 12:02:03;;;;;;;0.00;0.00;;;18.50;99.90;;;;;;5042231;28;20250;-70
2021/07/14 12:04:33;;;;;;;1.83;0.97;;;18.70;99.90;;;;;;4948295;28;20775;-70
2021/07/14 12:07:08;;;;;;;0.40;0.40;;;18.70;99.90;;;;;;5022661;28;20194;-70
2021/07/14 12:09:42;;;;;;;0.00;0.00;;;18.60;99.90;;;;;;5048384;28;20288;-69
2021/07/14 12:12:15;;;;;;;1.20;1.03;;;18.50;99.90;;;;;;5048752;28;20188;-68
2021/07/14 12:14:45;;;;;;;0.03;0.03;;;18.50;99.90;;;;;;5046935;28;20779;-68
2021/07/14 12:17:14;;;;;;;0.00;0.00;;;18.40;99.90;;;;;;5041909;28;20744;-68
2021/07/14 12:19:43;;;;;;;0.63;0.63;;;18.50;99.90;;;;;;5043302;28;20206;-68
2021/07/14 12:22:13;;;;;;;0.23;0.13;;;18.60;99.90;;;;;;5047465;28;20273;-68
2021/07/14 12:24:43;;;;;;;0.53;0.53;;;18.70;99.90;;;;;;5047972;28;20210;-68
2021/07/14 12:27:22;;;;;;;0.10;0.10;;;18.80;99.90;;;;;;5048287;28;20216;-68
2021/07/14 12:29:56;;;;;;;0.37;0.37;;;18.80;99.90;;;;;;5048818;28;20249;-68
2021/07/14 12:32:39;;;;;;;1.07;0.97;;;18.90;99.90;;;;;;5048165;28;20203;-68
2021/07/14 12:35:09;;;;;;;2.57;2.47;;;19.00;99.90;;;;;;5047792;28;20191;-68
2021/07/14 12:37:41;;;;;;;1.60;1.50;;;19.00;99.90;;;;;;5048733;28;20592;-69
2021/07/14 12:40:10;;;;;;;0.10;0.10;;;18.90;99.90;;;;;;5047682;28;21075;-68
2021/07/14 12:42:37;;;;;;;1.37;1.00;;;18.80;99.90;;;;;;5048579;28;20283;-68
2021/07/14 12:45:07;;;;;;;0.47;0.47;;;18.60;99.90;;;;;;5048595;28;20203;-68
2021/07/14 12:47:40;;;;;;;1.13;1.07;;;18.60;99.90;;;;;;5049139;28;20207;-68
2021/07/14 12:50:08;;;;;;;1.53;0.40;;;18.50;99.90;;;;;;5047072;28;20215;-69
2021/07/14 12:52:35;;;;;;;0.27;0.20;;;18.40;99.90;;;;;;5048710;28;20203;-68
2021/07/14 12:55:02;;;;;;;1.67;1.07;;;18.40;99.90;;;;;;5048579;28;20203;-68
2021/07/14 12:57:30;;;;;;;0.30;0.17;;;18.40;99.90;;;;;;5046607;28;20211;-68
2021/07/14 12:59:59;;;;;;;0.23;0.23;;;18.40;99.90;;;;;;5048311;28;20645;-68
2021/07/14 13:02:31;;;;;;;0.20;0.20;;;18.30;99.90;;;;;;5044365;28;20227;-67
2021/07/14 13:05:00;;;;;;;0.00;0.00;;;18.30;99.90;;;;;;5048392;28;20668;-69
2021/07/14 13:07:28;;;;;;;0.80;0.50;;;18.30;99.90;;;;;;5048518;28;20204;-70
2021/07/14 13:09:58;;;;;;;0.00;0.00;;;18.30;99.90;;;;;;5045001;28;20245;-70